createdAt,value
2022-11-20T00:01:13.897Z,77.64
2022-11-20T00:03:40.535Z,77.45
2022-11-20T00:06:09.804Z,76.96
2022-11-20T00:08:36.268Z,77.37
2022-11-20T00:11:15.545Z,76.06
2022-11-20T00:13:43.698Z,75.43
2022-11-20T00:16:12.634Z,76.56
2022-11-20T00:18:39.236Z,76.22
2022-11-20T00:21:12.615Z,76.36
2022-11-20T00:23:39.112Z,76.75
2022-11-20T00:26:11.767Z,77.57
2022-11-20T00:28:38.427Z,76.28
2022-11-20T00:31:07.400Z,77.33
2022-11-20T00:33:33.947Z,76.83
2022-11-20T00:36:05.579Z,77.53
2022-11-20T00:38:32.921Z,77.20
2022-11-20T00:41:00.679Z,78.49
2022-11-20T00:43:27.721Z,76.45
2022-11-20T00:46:00.256Z,76.87
2022-11-20T00:48:27.541Z,76.75
2022-11-20T00:50:54.420Z,76.60
2022-11-20T00:53:21.171Z,76.75
2022-11-20T00:55:55.766Z,75.01
2022-11-20T00:58:23.079Z,76.24
2022-11-20T01:00:50.693Z,77.65
2022-11-20T01:03:25.623Z,76.35
2022-11-20T01:05:53.380Z,76.81
2022-11-20T01:08:19.846Z,76.69
2022-11-20T01:10:46.314Z,76.56
2022-11-20T01:13:31.513Z,76.84
2022-11-20T01:16:03.725Z,76.19
2022-11-20T01:18:30.212Z,77.51
2022-11-20T01:20:56.655Z,75.95
2022-11-20T01:23:23.109Z,75.82
2022-11-20T01:25:49.524Z,76.13
2022-11-20T01:28:15.989Z,76.55
2022-11-20T01:30:42.439Z,76.60
2022-11-20T01:33:09.086Z,75.78
2022-11-20T01:35:35.528Z,76.84
2022-11-20T01:38:01.990Z,77.44
2022-11-20T01:40:28.638Z,76.53
2022-11-20T01:43:22.463Z,76.70
2022-11-20T01:45:58.073Z,75.91
2022-11-20T01:48:27.689Z,77.90
2022-11-20T01:50:54.884Z,76.67
2022-11-20T01:53:25.809Z,77.73
2022-11-20T01:55:54.848Z,77.10
2022-11-20T01:58:25.445Z,76.40
2022-11-20T02:00:51.915Z,76.19
2022-11-20T02:03:19.465Z,76.45
2022-11-20T02:05:50.731Z,76.63
2022-11-20T02:08:17.236Z,77.46
2022-11-20T02:10:43.726Z,76.20
2022-11-20T02:13:28.832Z,76.33
2022-11-20T02:15:55.592Z,75.96
2022-11-20T02:18:22.564Z,75.80
2022-11-20T02:20:52.198Z,75.38
2022-11-20T02:23:25.212Z,76.48
2022-11-20T02:25:52.528Z,74.61
2022-11-20T02:28:19.356Z,74.46
2022-11-20T02:30:45.842Z,76.24
2022-11-20T02:33:12.299Z,76.26
2022-11-20T02:35:46.813Z,75.49
2022-11-20T02:38:14.086Z,76.71
2022-11-20T02:40:40.871Z,78.31
2022-11-20T02:43:07.455Z,78.42
2022-11-20T02:45:34.424Z,78.10
2022-11-20T02:48:00.876Z,77.32
2022-11-20T02:50:27.539Z,77.91
2022-11-20T02:52:54.094Z,78.31
2022-11-20T02:55:20.571Z,77.31
2022-11-20T02:57:47.055Z,78.65
2022-11-20T03:00:14.055Z,78.29
2022-11-20T03:02:40.593Z,78.90
2022-11-20T03:05:07.304Z,77.10
2022-11-20T03:07:33.856Z,76.89
2022-11-20T03:10:00.343Z,76.42
2022-11-20T03:12:26.798Z,76.54
2022-11-20T03:14:53.555Z,76.46
2022-11-20T03:17:20.459Z,76.51
2022-11-20T03:19:46.959Z,74.92
2022-11-20T03:22:13.424Z,75.50
2022-11-20T03:24:39.942Z,75.47
2022-11-20T03:27:06.375Z,76.70
2022-11-20T03:29:33.436Z,76.18
2022-11-20T03:31:59.871Z,76.21
2022-11-20T03:34:26.377Z,74.84
2022-11-20T03:36:52.818Z,76.84
2022-11-20T03:39:19.488Z,76.67
2022-11-20T03:41:46.261Z,76.59
2022-11-20T03:44:13.047Z,77.11
2022-11-20T03:46:39.600Z,76.62
2022-11-20T03:49:06.321Z,77.41
2022-11-20T03:51:34.850Z,76.88
2022-11-20T03:54:03.675Z,76.68
2022-11-20T03:56:32.856Z,75.23
2022-11-20T03:58:59.640Z,76.50
2022-11-20T04:01:28.819Z,76.59
2022-11-20T04:03:56.353Z,77.58
2022-11-20T04:06:28.255Z,77.09
2022-11-20T04:08:56.499Z,78.67
2022-11-20T04:11:24.889Z,78.12
2022-11-20T04:13:54.501Z,76.44
2022-11-20T04:16:22.038Z,76.95
2022-11-20T04:18:48.547Z,76.68
2022-11-20T04:21:15.016Z,77.91
2022-11-20T04:23:41.503Z,77.22
2022-11-20T04:26:10.408Z,77.34
2022-11-20T04:28:37.390Z,77.16
2022-11-20T04:31:09.434Z,75.95
2022-11-20T04:33:36.800Z,76.06
2022-11-20T04:36:10.913Z,75.30
2022-11-20T04:38:37.355Z,75.91
2022-11-20T04:41:06.311Z,76.76
2022-11-20T04:43:33.731Z,76.21
2022-11-20T04:46:01.517Z,76.99
2022-11-20T04:48:29.233Z,76.74
2022-11-20T04:50:55.720Z,75.20
2022-11-20T04:53:23.102Z,75.83
2022-11-20T04:55:49.623Z,76.43
2022-11-20T04:58:17.802Z,76.00
2022-11-20T05:00:44.263Z,75.97
2022-11-20T05:03:10.711Z,76.00
2022-11-20T05:05:37.320Z,75.64
2022-11-20T05:08:04.182Z,76.49
2022-11-20T05:10:30.617Z,77.87
2022-11-20T05:12:58.195Z,77.77
2022-11-20T09:12:41.253Z,76.69
2022-11-20T09:27:12.423Z,81.02
2022-11-20T09:33:42.903Z,79.65
2022-11-20T09:55:25.561Z,78.88
2022-11-20T09:58:25.649Z,79.57
2022-11-20T11:13:55.542Z,78.31
2022-11-20T11:16:26.914Z,78.46
2022-11-20T11:19:07.749Z,78.85
2022-11-20T11:21:34.218Z,78.77
2022-11-20T11:24:19.758Z,78.25
2022-11-20T11:27:05.481Z,80.15
2022-11-20T11:29:32.234Z,79.16
2022-11-20T11:32:07.433Z,80.63
2022-11-20T11:34:34.483Z,78.26
2022-11-20T11:37:02.697Z,79.10
2022-11-20T11:39:30.706Z,80.20
2022-11-20T11:41:58.644Z,78.89
2022-11-20T11:44:55.964Z,75.78
2022-11-20T11:47:27.418Z,76.62
2022-11-20T11:50:03.067Z,76.27
2022-11-20T11:52:30.195Z,76.59
2022-11-20T11:55:00.721Z,76.46
2022-11-20T11:57:55.875Z,76.98
2022-11-20T12:00:23.271Z,77.43
2022-11-20T12:03:16.812Z,76.41
2022-11-20T12:05:52.310Z,74.89
2022-11-20T12:08:24.718Z,73.97
2022-11-20T12:10:56.597Z,73.97
2022-11-20T12:13:31.915Z,74.25
2022-11-20T12:15:59.298Z,76.08
2022-11-20T12:18:26.955Z,74.75
2022-11-20T12:21:07.448Z,73.75
2022-11-20T12:23:36.951Z,75.20
2022-11-20T12:26:09.529Z,73.91
2022-11-20T12:28:41.999Z,74.89
2022-11-20T12:31:33.361Z,73.52
2022-11-20T12:34:43.144Z,73.27
2022-11-20T12:37:27.395Z,72.31
2022-11-20T12:39:56.462Z,70.67
2022-11-20T12:42:50.794Z,71.53
2022-11-20T12:45:47.858Z,70.62
2022-11-20T12:48:52.682Z,70.44
2022-11-20T12:51:48.364Z,70.66
2022-11-20T12:54:23.831Z,70.58
2022-11-20T12:57:03.932Z,70.34
2022-11-20T13:00:03.722Z,70.03
2022-11-20T13:02:46.644Z,69.72
2022-11-20T13:05:23.147Z,67.96
2022-11-20T13:07:53.452Z,68.37
2022-11-20T13:10:40.497Z,69.11
2022-11-20T13:13:17.963Z,68.62
2022-11-20T13:15:56.827Z,67.27
2022-11-20T13:18:23.525Z,68.09
2022-11-20T13:20:50.673Z,69.52
2022-11-20T13:23:28.459Z,70.11
2022-11-20T13:26:24.062Z,70.00
2022-11-20T13:29:26.110Z,68.70
2022-11-20T13:31:52.565Z,68.33
2022-11-20T13:34:28.815Z,69.45
2022-11-20T13:36:57.602Z,68.81
2022-11-20T13:39:27.782Z,68.69
2022-11-20T13:41:56.558Z,68.42
2022-11-20T13:44:26.472Z,67.71
2022-11-20T13:46:53.056Z,67.14
2022-11-20T13:49:38.905Z,65.75
2022-11-20T13:52:26.214Z,66.02
2022-11-20T13:55:04.803Z,66.25
2022-11-20T13:57:56.096Z,66.10
2022-11-20T14:00:24.561Z,65.70
2022-11-20T14:03:07.037Z,65.97
2022-11-20T14:05:41.972Z,66.91
2022-11-20T14:08:18.594Z,67.75
2022-11-20T14:10:45.368Z,66.77
2022-11-20T14:13:21.955Z,65.44
2022-11-20T14:15:48.418Z,66.13
2022-11-20T14:18:22.915Z,66.08
2022-11-20T14:20:49.824Z,65.65
2022-11-20T14:23:29.956Z,64.83
2022-11-20T14:25:57.072Z,66.04
2022-11-20T14:28:28.700Z,65.72
2022-11-20T14:30:56.368Z,65.35
2022-11-20T14:33:25.862Z,65.27
2022-11-20T14:35:56.838Z,65.25
2022-11-20T14:38:26.439Z,66.95
2022-11-20T14:40:53.098Z,66.98
2022-11-20T14:43:21.489Z,66.50
2022-11-20T14:45:56.297Z,67.89
2022-11-20T14:48:26.724Z,67.65
2022-11-20T14:50:53.173Z,67.40
2022-11-20T14:53:24.856Z,67.95
2022-11-20T14:56:00.888Z,67.69
2022-11-20T14:58:33.127Z,66.91
2022-11-20T15:00:59.742Z,67.17
2022-11-20T15:03:40.338Z,68.37
2022-11-20T15:06:08.197Z,67.96
2022-11-20T15:08:35.649Z,68.85
2022-11-20T15:11:02.472Z,68.93
2022-11-20T15:13:39.527Z,68.35
2022-11-20T15:16:18.695Z,69.67
2022-11-20T15:18:45.490Z,71.10
2022-11-20T15:21:17.047Z,71.94
2022-11-20T15:23:43.984Z,71.34
2022-11-20T15:26:18.390Z,69.68
2022-11-20T15:28:48.745Z,69.35
2022-11-20T15:31:20.864Z,68.95
2022-11-20T15:33:47.501Z,68.86
2022-11-20T15:36:14.049Z,69.27
2022-11-20T15:38:40.930Z,69.81
2022-11-20T15:41:08.013Z,68.69
2022-11-20T15:43:34.912Z,67.95
2022-11-20T15:46:04.444Z,68.06
2022-11-20T15:48:35.214Z,69.22
2022-11-20T15:51:05.234Z,70.03
2022-11-20T15:53:31.684Z,68.72
2022-11-20T15:55:58.145Z,69.41
2022-11-20T15:58:25.221Z,69.26
2022-11-20T16:00:51.815Z,68.91
2022-11-20T16:03:18.818Z,68.86
2022-11-20T16:05:45.694Z,69.64
2022-11-20T16:08:12.255Z,69.33
2022-11-20T16:10:39.208Z,69.25
2022-11-20T16:13:25.321Z,68.87
2022-11-20T16:15:54.200Z,69.65
2022-11-20T16:18:22.179Z,69.67
2022-11-20T16:20:53.481Z,70.12
2022-11-20T16:23:21.289Z,70.92
2022-11-20T16:25:48.372Z,71.06
2022-11-20T16:28:18.787Z,72.13
2022-11-20T16:30:46.425Z,72.02
2022-11-20T16:33:15.135Z,71.89
2022-11-20T16:35:42.062Z,71.87
2022-11-20T16:38:08.568Z,72.02
2022-11-20T16:40:35.253Z,72.56
2022-11-20T16:43:12.316Z,72.45
2022-11-20T16:45:41.785Z,70.98
2022-11-20T16:48:12.707Z,71.21
2022-11-20T16:50:45.664Z,70.04
2022-11-20T16:53:12.126Z,69.94
2022-11-20T16:55:38.598Z,71.05
2022-11-20T16:58:05.045Z,70.56
2022-11-20T17:00:31.484Z,70.10
2022-11-20T17:02:57.935Z,70.20
2022-11-20T17:05:39.271Z,70.98
2022-11-20T17:08:05.804Z,71.19
2022-11-20T17:10:32.345Z,69.54
2022-11-20T17:12:58.805Z,70.77
2022-11-20T17:15:25.259Z,71.39
2022-11-20T17:17:51.722Z,71.10
2022-11-20T17:20:18.160Z,70.33
2022-11-20T17:22:44.611Z,70.69
2022-11-20T17:25:11.067Z,72.07
2022-11-20T17:27:37.548Z,72.97
2022-11-20T17:30:04.185Z,72.34
2022-11-20T17:32:30.624Z,72.21
2022-11-20T17:34:58.866Z,73.15
2022-11-20T17:37:25.357Z,71.83
2022-11-20T17:39:51.910Z,72.65
2022-11-20T17:42:27.437Z,72.42
2022-11-20T17:44:53.870Z,73.37
2022-11-20T17:47:20.322Z,72.69
2022-11-20T17:49:46.752Z,72.20
2022-11-20T17:52:13.252Z,71.71
2022-11-20T17:54:39.686Z,72.10
2022-11-20T17:57:27.383Z,69.92
2022-11-20T17:59:53.854Z,69.47
2022-11-20T18:02:22.427Z,69.84
2022-11-20T18:04:50.196Z,70.68
2022-11-20T18:07:16.737Z,69.16
2022-11-20T18:09:43.469Z,70.16
2022-11-20T18:12:09.986Z,69.67
2022-11-20T18:14:36.601Z,69.84
2022-11-20T18:17:09.076Z,70.16
2022-11-20T18:20:07.161Z,70.60
2022-11-20T18:22:34.795Z,69.62
2022-11-20T18:25:01.386Z,68.72
2022-11-20T18:27:27.839Z,69.23
2022-11-20T18:29:54.302Z,69.30
2022-11-20T18:32:21.963Z,68.25
2022-11-20T18:34:48.971Z,68.25
2022-11-20T18:37:16.617Z,68.74
2022-11-20T18:39:43.550Z,69.12
2022-11-20T18:42:33.259Z,68.60
2022-11-20T18:45:00.482Z,68.11
2022-11-20T18:47:30.781Z,67.87
2022-11-20T18:49:59.658Z,67.97
2022-11-20T18:52:49.163Z,67.33
2022-11-20T18:55:18.693Z,68.55
2022-11-20T18:57:45.346Z,68.77
2022-11-20T19:00:12.716Z,68.00
2022-11-20T19:05:25.995Z,68.19
2022-11-20T19:07:53.604Z,67.82
2022-11-20T19:10:20.982Z,67.26
2022-11-20T19:12:47.958Z,67.63
2022-11-20T19:15:15.080Z,68.22
2022-11-20T19:17:41.764Z,67.59
2022-11-20T19:20:08.795Z,68.62
2022-11-20T19:22:35.339Z,68.08
2022-11-20T19:25:01.808Z,68.71
2022-11-20T19:27:38.732Z,67.42
2022-11-20T19:30:05.662Z,68.44
2022-11-20T19:32:32.588Z,69.75
2022-11-20T19:34:59.211Z,68.85
2022-11-20T19:37:25.665Z,68.73
2022-11-20T19:39:52.479Z,68.45
2022-11-20T19:42:18.929Z,67.82
2022-11-20T19:44:45.413Z,67.77
2022-11-20T19:47:14.739Z,69.73
2022-11-20T19:49:42.395Z,68.95
2022-11-20T19:52:09.443Z,68.13
2022-11-20T19:54:36.858Z,68.47
2022-11-20T19:57:03.661Z,67.46
2022-11-20T19:59:30.197Z,68.31
2022-11-20T20:01:57.290Z,67.95
2022-11-20T20:04:23.824Z,68.18
2022-11-20T20:06:50.853Z,68.58
2022-11-20T20:09:17.321Z,68.79
2022-11-20T20:11:47.252Z,69.01
2022-11-20T20:14:15.384Z,69.37
2022-11-20T20:16:42.803Z,69.40
2022-11-20T20:19:13.158Z,68.61
2022-11-20T20:21:41.146Z,69.05
2022-11-20T20:24:08.003Z,69.47
2022-11-20T20:26:34.550Z,70.61
2022-11-20T20:29:01.985Z,71.08
2022-11-20T20:31:32.143Z,68.52
2022-11-20T20:34:00.106Z,67.16
2022-11-20T20:36:26.715Z,67.69
2022-11-20T20:38:55.567Z,67.76
2022-11-20T20:41:23.342Z,66.90
2022-11-20T20:44:08.419Z,67.05
2022-11-20T20:46:34.933Z,67.50
2022-11-20T20:49:01.447Z,68.56
2022-11-20T20:51:28.016Z,67.46
2022-11-20T20:53:54.526Z,68.90
2022-11-20T20:56:21.382Z,68.76
2022-11-20T20:58:47.820Z,69.14
2022-11-20T21:01:16.600Z,68.97
2022-11-20T21:03:43.191Z,69.32
2022-11-20T21:06:10.777Z,68.86
2022-11-20T21:08:40.427Z,67.34
2022-11-20T21:11:12.987Z,69.28
2022-11-20T21:13:40.481Z,68.57
2022-11-20T21:16:07.413Z,66.75
2022-11-20T21:18:34.011Z,66.92
2022-11-20T21:21:19.070Z,67.55
2022-11-20T21:23:47.041Z,68.34
2022-11-20T21:26:14.295Z,70.68
2022-11-20T21:28:40.997Z,68.93
2022-11-20T21:31:25.043Z,69.92
2022-11-20T21:33:52.994Z,70.43
2022-11-20T21:36:21.436Z,70.30
2022-11-20T21:38:48.623Z,68.16
2022-11-20T21:41:15.800Z,67.79
2022-11-20T21:43:43.004Z,68.14
2022-11-20T21:46:14.386Z,68.38
2022-11-20T21:48:42.686Z,68.27
2022-11-20T21:51:14.039Z,68.38
2022-11-20T21:53:41.079Z,68.63
2022-11-20T21:56:09.170Z,68.54
2022-11-20T21:58:36.356Z,68.87
2022-11-20T22:01:13.281Z,68.38
2022-11-20T22:03:40.503Z,70.12
2022-11-20T22:06:08.383Z,70.50
2022-11-20T22:08:36.004Z,71.11
2022-11-20T22:11:05.067Z,71.26
2022-11-20T22:13:50.057Z,70.62
2022-11-20T22:16:16.579Z,71.87
2022-11-20T22:18:44.656Z,70.97
2022-11-20T22:21:11.825Z,70.89
2022-11-20T22:23:38.542Z,71.35
2022-11-20T22:26:07.191Z,71.11
2022-11-20T22:28:34.226Z,70.53
2022-11-20T22:31:01.941Z,70.76
2022-11-20T22:33:30.965Z,70.78
2022-11-20T22:36:06.403Z,70.95
2022-11-20T22:38:38.928Z,72.38
2022-11-20T22:41:08.334Z,72.79
2022-11-20T22:43:36.607Z,71.94
2022-11-20T22:46:14.124Z,72.98
2022-11-20T22:48:54.613Z,72.49
2022-11-20T22:51:23.966Z,71.38
2022-11-20T22:53:50.988Z,71.54
2022-11-20T22:56:18.055Z,70.55
2022-11-20T22:58:46.792Z,69.59
2022-11-20T23:01:18.322Z,69.94
2022-11-20T23:03:48.198Z,69.37
2022-11-20T23:06:16.911Z,68.62
2022-11-20T23:08:44.428Z,69.68
2022-11-20T23:11:13.315Z,69.47
2022-11-20T23:13:40.155Z,70.05
2022-11-20T23:18:34.845Z,69.24
2022-11-20T23:21:09.817Z,69.46
2022-11-20T23:23:36.495Z,69.09
2022-11-20T23:26:04.880Z,69.29
2022-11-20T23:28:31.476Z,68.70
2022-11-20T23:30:58.181Z,69.47
2022-11-20T23:33:25.022Z,68.19
2022-11-20T23:35:51.792Z,69.07
2022-11-20T23:38:18.434Z,70.79
2022-11-20T23:40:51.987Z,67.24
2022-11-20T23:43:20.348Z,68.02
2022-11-20T23:45:49.214Z,66.94
2022-11-20T23:48:16.215Z,67.88
2022-11-20T23:50:43.896Z,69.35
2022-11-20T23:53:11.258Z,68.04
2022-11-20T23:55:37.748Z,66.49
2022-11-20T23:58:04.640Z,67.00
